Time;durP1;ratioP1;P1;durP2;ratioP2;P2;SDS_P1;SDS_P2;PMS_P1;PMS_P2;Temp;Humidity;BMP_temperature;BMP_pressure;BME280_temperature;BME280_humidity;BME280_pressure;Samples;Min_cycle;Max_cycle;Signal;HPM_P1;HPM_P2
2022/08/08 00:02:52;;;;;;;7.00;6.30;;;;;;;19.49;100.00;96731.72;5076255;28;20079;-39
2022/08/08 00:05:26;;;;;;;8.35;6.43;;;;;;;19.17;100.00;96741.97;5077877;28;20075;-42
2022/08/08 00:08:20;;;;;;;8.20;6.40;;;;;;;19.19;100.00;96732.69;5081010;28;20083;-45
2022/08/08 00:10:57;;;;;;;7.80;7.00;;;;;;;19.07;100.00;96734.25;5083074;28;20091;-45
2022/08/08 00:13:31;;;;;;;6.75;5.85;;;;;;;19.24;100.00;96737.50;5082956;28;20498;-40
2022/08/08 00:16:23;;;;;;;8.27;6.50;;;;;;;19.57;100.00;96735.06;5072662;28;20084;-40
2022/08/08 00:18:57;;;;;;;9.38;6.38;;;;;;;19.49;100.00;96729.06;5079493;28;20084;-42
2022/08/08 00:21:31;;;;;;;6.88;6.07;;;;;;;19.31;100.00;96740.22;5075243;28;20072;-46
2022/08/08 00:24:15;;;;;;;7.32;5.95;;;;;;;19.47;100.00;96734.59;5070040;28;20707;-46
2022/08/08 00:26:48;;;;;;;6.88;6.22;;;;;;;19.53;100.00;96733.00;5080807;28;20526;-40
2022/08/08 00:29:22;;;;;;;6.63;5.90;;;;;;;19.45;100.00;96733.97;5071015;28;20087;-39
2022/08/08 00:32:15;;;;;;;7.05;5.60;;;;;;;19.34;100.00;96731.78;5070529;28;20180;-43
2022/08/08 00:35:26;;;;;;;7.05;5.13;;;;;;;19.09;100.00;96734.88;5075834;28;20088;-43
2022/08/08 00:38:06;;;;;;;6.88;5.15;;;;;;;19.10;100.00;96736.53;5074730;28;20091;-40
2022/08/08 00:41:14;;;;;;;5.60;4.80;;;;;;;18.93;100.00;96735.16;5076286;28;20491;-47
2022/08/08 00:44:09;;;;;;;7.03;6.07;;;;;;;18.79;100.00;96731.50;5046651;28;20447;-45
2022/08/08 00:47:09;;;;;;;8.50;6.80;;;;;;;18.81;100.00;96728.63;5072575;28;20526;-45
2022/08/08 00:50:21;;;;;;;8.85;7.18;;;;;;;19.06;100.00;96737.09;5041553;28;20075;-41
2022/08/08 00:52:58;;;;;;;8.07;7.18;;;;;;;19.03;100.00;96733.00;5036910;28;20088;-39
2022/08/08 00:56:08;;;;;;;9.45;6.45;;;;;;;19.22;100.00;96734.19;5026504;28;20164;-42
2022/08/08 00:59:10;;;;;;;9.02;6.93;;;;;;;19.20;100.00;96729.03;5029860;28;20077;-49
2022/08/08 01:01:51;;;;;;;9.25;7.35;;;;;;;19.05;100.00;96735.47;5011878;28;20073;-42
2022/08/08 01:05:01;;;;;;;8.52;7.03;;;;;;;19.05;100.00;96728.25;5033267;28;20080;-43
2022/08/08 01:07:58;;;;;;;10.48;7.10;;;;;;;18.91;100.00;96727.31;5038119;28;20080;-41
2022/08/08 01:10:51;;;;;;;9.10;7.13;;;;;;;18.90;100.00;96731.00;5076723;28;20083;-44
2022/08/08 01:13:51;;;;;;;8.18;7.07;;;;;;;18.70;100.00;96729.94;5083306;28;20531;-47
2022/08/08 01:16:51;;;;;;;8.65;6.60;;;;;;;18.52;100.00;96726.84;5075099;28;20084;-41
2022/08/08 01:19:55;;;;;;;9.38;7.45;;;;;;;18.72;100.00;96728.75;5081968;28;20080;-43
2022/08/08 01:23:00;;;;;;;8.52;7.68;;;;;;;18.91;100.00;96724.63;5075074;28;20475;-47
2022/08/08 01:26:02;;;;;;;10.77;8.63;;;;;;;18.71;100.00;96729.75;5082935;28;20078;-45
2022/08/08 01:28:57;;;;;;;9.27;7.97;;;;;;;18.89;100.00;96733.84;5071814;28;20091;-40
2022/08/08 01:32:07;;;;;;;8.57;7.68;;;;;;;18.87;100.00;96734.06;5080649;28;20072;-40
2022/08/08 01:35:14;;;;;;;8.13;6.75;;;;;;;18.87;100.00;96727.88;5075777;28;20107;-39
2022/08/08 01:38:01;;;;;;;8.93;8.02;;;;;;;18.71;100.00;96723.56;5048682;28;20083;-42
2022/08/08 01:40:33;;;;;;;10.60;8.05;;;;;;;18.85;100.00;96730.72;5069649;28;20596;-42
2022/08/08 01:43:07;;;;;;;10.63;8.35;;;;;;;18.83;100.00;96726.63;5080292;28;20094;-43
2022/08/08 01:45:51;;;;;;;8.40;7.13;;;;;;;18.77;100.00;96730.03;5080216;28;20542;-40
2022/08/08 01:48:36;;;;;;;8.82;6.85;;;;;;;18.53;100.00;96737.34;5076140;28;20607;-41
2022/08/08 01:51:23;;;;;;;8.75;7.35;;;;;;;18.31;100.00;96744.47;5075115;28;20080;-40
2022/08/08 01:54:19;;;;;;;8.10;7.30;;;;;;;18.06;100.00;96738.59;5069926;28;20091;-47
2022/08/08 01:57:21;;;;;;;8.18;6.43;;;;;;;18.28;100.00;96739.50;5081867;28;20082;-42
2022/08/08 02:00:04;;;;;;;8.02;6.38;;;;;;;18.34;100.00;96737.91;5078856;28;20083;-40
2022/08/08 02:02:45;;;;;;;6.93;6.10;;;;;;;18.44;100.00;96733.13;5084404;28;20079;-44
2022/08/08 02:05:28;;;;;;;8.32;6.05;;;;;;;18.39;100.00;96738.19;5075928;28;20084;-41
2022/08/08 02:08:22;;;;;;;6.97;6.28;;;;;;;18.35;100.00;96739.59;5078728;28;20455;-40
2022/08/08 02:11:06;;;;;;;7.30;5.90;;;;;;;18.16;100.00;96749.00;5077866;28;20084;-40
2022/08/08 02:13:54;;;;;;;6.43;5.68;;;;;;;18.05;100.00;96742.28;5082355;28;20128;-44
2022/08/08 02:16:28;;;;;;;8.65;6.45;;;;;;;18.08;100.00;96749.91;5077866;28;20075;-40
2022/08/08 02:19:03;;;;;;;8.85;6.93;;;;;;;18.23;100.00;96747.22;5088151;28;20076;-42
2022/08/08 02:24:51;;;;;;;8.45;7.00;;;;;;;18.23;100.00;96750.72;5072089;28;20090;-45
2022/08/08 02:27:26;;;;;;;9.98;6.78;;;;;;;18.18;100.00;96755.81;5079990;28;20098;-40
2022/08/08 02:30:12;;;;;;;8.10;6.97;;;;;;;18.15;100.00;96758.03;5091044;28;20079;-43
2022/08/08 02:33:10;;;;;;;9.73;6.95;;;;;;;18.16;100.00;96755.16;5084700;28;20455;-46
2022/08/08 02:36:00;;;;;;;;;;;;;;;18.05;100.00;96760.97;5080204;28;20051;-42
2022/08/08 02:38:50;;;;;;;8.60;7.45;;;;;;;18.21;100.00;96755.44;5078767;28;19963;-39
2022/08/08 02:42:05;;;;;;;9.38;6.97;;;;;;;18.20;100.00;96760.94;5087967;28;20523;-42
2022/08/08 02:44:58;;;;;;;10.30;6.80;;;;;;;18.21;100.00;96762.63;5045419;28;20163;-41
2022/08/08 02:48:03;;;;;;;7.53;6.68;;;;;;;18.13;100.00;96758.19;5043393;28;20549;-44
2022/08/08 02:51:02;;;;;;;8.57;7.15;;;;;;;18.19;100.00;96770.81;5085330;28;20486;-40
2022/08/08 02:53:51;;;;;;;;;;;;;;;18.19;100.00;96770.81;5085424;28;20060;-43
2022/08/08 02:56:49;;;;;;;9.60;6.78;;;;;;;18.16;100.00;96770.34;5076409;28;20417;-40
2022/08/08 02:59:50;;;;;;;9.38;7.95;;;;;;;18.25;100.00;96770.06;5078215;28;20076;-41
2022/08/08 03:02:49;;;;;;;;;;;;;;;18.27;100.00;96772.53;5085062;28;20088;-43
2022/08/08 03:05:59;;;;;;;6.45;5.85;;;;;;;18.11;100.00;96770.09;5084093;28;19966;-41
2022/08/08 03:09:18;;;;;;;7.68;6.10;;;;;;;17.99;100.00;96773.19;5082552;28;20105;-47
2022/08/08 03:12:40;;;;;;;10.63;7.97;;;;;;;17.87;100.00;96773.84;5046083;28;20073;-41
2022/08/08 03:16:03;;;;;;;9.98;8.07;;;;;;;17.45;100.00;96776.03;5071088;28;20475;-41
2022/08/08 03:18:48;;;;;;;10.88;9.48;;;;;;;17.36;100.00;96771.78;5075242;28;20480;-50
2022/08/08 03:21:19;;;;;;;9.75;8.48;;;;;;;17.65;100.00;96767.50;5077366;28;20250;-40
2022/08/08 03:24:08;;;;;;;8.00;6.60;;;;;;;17.89;100.00;96766.47;5081597;28;20067;-41
2022/08/08 03:26:40;;;;;;;6.70;6.10;;;;;;;17.72;100.00;96755.09;5085616;28;20068;-40
2022/08/08 03:29:13;;;;;;;8.18;6.43;;;;;;;17.66;100.00;96755.84;5078055;28;20072;-49
2022/08/08 03:34:46;;;;;;;7.53;6.80;;;;;;;17.72;100.00;96747.09;5045429;28;20253;-46
2022/08/08 03:37:17;;;;;;;6.80;6.05;;;;;;;17.83;100.00;96752.03;5081556;28;20080;-43
2022/08/08 03:40:07;;;;;;;7.30;6.60;;;;;;;17.83;100.00;96760.03;5087337;28;20056;-42
2022/08/08 03:42:57;;;;;;;;;;;;;;;17.82;100.00;96761.03;5082861;28;20522;-40
2022/08/08 03:45:44;;;;;;;8.63;5.93;;;;;;;17.68;100.00;96757.31;5077585;28;20437;-44
2022/08/08 03:48:32;;;;;;;7.15;5.72;;;;;;;17.58;100.00;96762.06;5079764;28;20071;-40
2022/08/08 03:51:20;;;;;;;6.05;5.45;;;;;;;17.47;100.00;96758.00;5081160;28;20083;-43
2022/08/08 03:54:08;;;;;;;5.40;4.40;;;;;;;17.26;100.00;96765.84;5083352;28;20084;-42
2022/08/08 03:56:44;;;;;;;6.30;5.10;;;;;;;17.36;100.00;96774.44;5080580;28;20091;-47
2022/08/08 03:59:13;;;;;;;5.90;5.38;;;;;;;17.25;100.00;96775.69;5070236;28;20088;-40
2022/08/08 04:01:53;;;;;;;5.80;5.07;;;;;;;17.04;100.00;96772.84;5068151;28;20048;-39
2022/08/08 04:04:41;;;;;;;5.57;5.07;;;;;;;17.20;100.00;96772.72;5070186;28;20107;-41
2022/08/08 04:07:12;;;;;;;;;;;;;;;17.17;100.00;96774.91;5080717;28;20221;-40
2022/08/08 04:09:55;;;;;;;9.93;6.38;;;;;;;16.98;100.00;96774.38;5085204;28;19973;-40
2022/08/08 04:12:34;;;;;;;10.27;6.90;;;;;;;17.29;100.00;96773.50;5074134;28;20083;-44
2022/08/08 04:15:04;;;;;;;8.88;6.82;;;;;;;17.40;100.00;96766.91;5077157;28;20080;-48
2022/08/08 04:17:33;;;;;;;9.30;7.03;;;;;;;17.48;100.00;96775.69;5083143;28;20083;-41
2022/08/08 04:20:21;;;;;;;8.48;6.35;;;;;;;17.58;100.00;96775.41;5079905;28;20082;-47
2022/08/08 04:22:56;;;;;;;7.32;5.75;;;;;;;17.71;100.00;96780.94;5074402;28;20163;-41
2022/08/08 04:25:26;;;;;;;13.02;7.13;;;;;;;18.15;100.00;96790.88;5084828;28;20083;-44
2022/08/08 04:27:58;;;;;;;8.70;6.95;;;;;;;18.98;100.00;96786.16;5073908;28;20108;-41
2022/08/08 04:30:47;;;;;;;7.60;6.90;;;;;;;19.79;100.00;96781.41;5074162;28;20474;-40
2022/08/08 04:33:15;;;;;;;7.45;5.88;;;;;;;20.33;100.00;96783.38;5083679;28;20471;-40
2022/08/08 04:35:43;;;;;;;6.20;5.60;;;;;;;20.71;100.00;96790.16;5088171;28;20083;-44
2022/08/08 04:38:18;;;;;;;7.32;5.57;;;;;;;21.10;100.00;96784.94;5069472;28;20091;-47
2022/08/08 04:40:49;;;;;;;;;;;;;;;21.68;100.00;96786.25;5070189;28;20103;-45
2022/08/08 04:43:22;;;;;;;5.75;5.15;;;;;;;21.71;100.00;96788.53;5076216;28;19963;-43
2022/08/08 04:46:11;;;;;;;5.38;4.72;;;;;;;21.00;100.00;96795.22;5084594;28;20075;-44
2022/08/08 04:48:42;;;;;;;6.18;4.35;;;;;;;20.53;100.00;96796.91;5080939;28;20463;-44
2022/08/08 04:51:10;;;;;;;5.70;5.20;;;;;;;20.64;100.00;96808.91;5080824;28;20082;-42
2022/08/08 04:53:50;;;;;;;8.75;5.82;;;;;;;20.93;100.00;96812.31;5082531;28;20063;-42
2022/08/08 04:56:39;;;;;;;6.60;5.50;;;;;;;20.97;100.00;96810.88;5074912;28;20076;-45
2022/08/08 04:59:08;;;;;;;7.03;5.50;;;;;;;20.75;100.00;96816.38;5082239;28;20083;-40
2022/08/08 05:01:37;;;;;;;6.93;5.90;;;;;;;20.55;100.00;96808.25;5079809;28;20122;-39
2022/08/08 05:04:16;;;;;;;6.10;5.50;;;;;;;20.56;100.00;96820.63;5070534;28;20567;-47
2022/08/08 05:06:46;;;;;;;6.43;5.70;;;;;;;20.69;100.00;96819.03;5076169;28;20079;-41
2022/08/08 05:09:19;;;;;;;6.68;5.97;;;;;;;20.86;100.00;96818.47;5080127;28;20089;-41
2022/08/08 05:11:49;;;;;;;6.68;5.80;;;;;;;21.21;100.00;96813.03;5084654;28;20448;-43
2022/08/08 05:14:25;;;;;;;7.18;5.75;;;;;;;22.09;100.00;96817.41;5075435;28;20095;-41
2022/08/08 05:16:57;;;;;;;5.30;4.80;;;;;;;22.46;100.00;96827.50;5069670;28;20075;-39
2022/08/08 05:19:28;;;;;;;5.53;5.03;;;;;;;22.94;100.00;96820.97;5082732;28;20094;-42
2022/08/08 05:22:17;;;;;;;7.80;5.53;;;;;;;23.43;100.00;96820.31;5071087;28;20129;-39
2022/08/08 05:24:45;;;;;;;5.75;5.25;;;;;;;24.13;100.00;96816.69;5075586;28;20078;-43
2022/08/08 05:27:16;;;;;;;6.57;5.82;;;;;;;24.41;100.00;96815.41;5074917;28;20178;-40
2022/08/08 05:29:45;;;;;;;6.70;5.70;;;;;;;24.28;100.00;96816.31;5075728;28;20102;-42
2022/08/08 05:32:20;;;;;;;6.10;5.60;;;;;;;24.22;100.00;96809.94;5084005;28;20064;-41
2022/08/08 05:34:58;;;;;;;5.90;5.30;;;;;;;24.29;100.00;96812.56;5070878;28;20064;-42
2022/08/08 05:37:35;;;;;;;6.97;6.13;;;;;;;23.74;100.00;96818.66;5087436;28;20086;-41
2022/08/08 05:40:21;;;;;;;7.50;6.43;;;;;;;23.62;100.00;96821.19;5079522;28;20084;-40
2022/08/08 05:43:02;;;;;;;6.55;5.95;;;;;;;23.40;100.00;96811.81;5077601;28;20071;-40
2022/08/08 05:45:53;;;;;;;7.78;5.68;;;;;;;22.50;100.00;96831.47;5080567;28;20068;-41
2022/08/08 05:48:32;;;;;;;6.63;5.97;;;;;;;22.77;100.00;96830.53;5082142;28;20091;-42
2022/08/08 05:51:03;;;;;;;11.20;6.78;;;;;;;22.11;100.00;96826.94;5082238;28;20439;-40
2022/08/08 05:53:45;;;;;;;7.03;6.32;;;;;;;22.17;100.00;96830.69;5074506;28;20076;-42
2022/08/08 05:56:38;;;;;;;7.63;6.88;;;;;;;22.05;100.00;96831.25;5074843;28;20141;-42
2022/08/08 05:59:18;;;;;;;7.28;6.15;;;;;;;21.88;100.00;96835.41;5082528;28;20523;-43
2022/08/08 06:03:09;;;;;;;7.40;6.68;;;;;;;22.00;100.00;96828.38;5080966;28;20079;-42
2022/08/08 06:05:06;;;;;;;7.72;5.82;;;;;;;21.97;100.00;96828.81;5082035;28;20079;-40
2022/08/08 06:07:54;;;;;;;5.97;5.30;;;;;;;21.51;100.00;96829.63;5087520;28;20095;-41
2022/08/08 06:10:32;;;;;;;7.15;5.15;;;;;;;21.83;100.00;96837.91;5077776;28;20419;-41
2022/08/08 06:13:02;;;;;;;9.85;5.93;;;;;;;21.45;100.00;96838.47;5077309;28;20510;-46
2022/08/08 06:15:32;;;;;;;8.05;5.20;;;;;;;21.30;100.00;96844.00;5092141;28;20102;-41
2022/08/08 06:18:23;;;;;;;5.68;5.18;;;;;;;21.53;100.00;96843.66;5078744;28;20087;-45
2022/08/08 06:20:55;;;;;;;9.20;5.35;;;;;;;22.37;100.00;96844.91;5083030;28;20084;-41
2022/08/08 06:23:26;;;;;;;5.93;4.82;;;;;;;21.45;100.00;96851.06;5079984;28;20450;-44
2022/08/08 06:26:14;;;;;;;7.07;5.43;;;;;;;21.86;100.00;96850.91;5079348;28;20511;-43
2022/08/08 06:29:05;;;;;;;6.78;4.55;;;;;;;22.38;100.00;96848.44;5085725;28;20076;-44
2022/08/08 06:31:59;;;;;;;5.40;4.90;;;;;;;22.54;100.00;96858.75;5078145;28;20080;-46
2022/08/08 06:34:46;;;;;;;5.28;4.63;;;;;;;22.43;100.00;96857.50;5072150;28;20095;-44
2022/08/08 06:37:38;;;;;;;6.90;4.72;;;;;;;22.42;100.00;96857.72;5085370;28;20076;-42
2022/08/08 06:40:10;;;;;;;6.53;5.00;;;;;;;21.99;100.00;96858.16;5079115;28;20084;-42
2022/08/08 06:42:48;;;;;;;5.28;4.60;;;;;;;22.51;100.00;96867.22;5081533;28;20088;-42
2022/08/08 06:45:16;;;;;;;8.63;4.97;;;;;;;22.85;100.00;96857.16;5078935;28;20044;-41
2022/08/08 06:47:47;;;;;;;6.90;5.10;;;;;;;22.69;100.00;96863.88;5071905;28;20325;-40
2022/08/08 06:50:31;;;;;;;6.13;4.80;;;;;;;23.38;100.00;96867.75;5071886;28;20095;-40
2022/08/08 06:53:07;;;;;;;5.07;4.57;;;;;;;23.09;100.00;96869.13;5071409;28;20064;-45
2022/08/08 06:55:44;;;;;;;7.93;4.72;;;;;;;23.24;100.00;96872.38;5086393;28;20075;-41
2022/08/08 06:58:14;;;;;;;5.00;4.50;;;;;;;23.51;100.00;96872.22;5079446;28;20075;-46
2022/08/08 07:00:49;;;;;;;6.18;4.22;;;;;;;23.52;100.00;96874.69;5078051;28;20526;-40
2022/08/08 07:03:27;;;;;;;5.28;4.78;;;;;;;23.54;100.00;96882.56;5071153;28;20457;-41
2022/08/08 07:06:20;;;;;;;7.97;4.25;;;;;;;23.36;100.00;96869.81;5076925;28;20087;-42
2022/08/08 07:08:52;;;;;;;6.00;4.10;;;;;;;24.16;100.00;96876.34;5079660;28;20076;-42
2022/08/08 07:11:25;;;;;;;5.97;4.45;;;;;;;23.61;100.00;96884.19;5077201;28;20091;-41
2022/08/08 07:14:00;;;;;;;4.97;4.35;;;;;;;23.75;100.00;96876.06;5071047;28;20087;-42
2022/08/08 07:16:39;;;;;;;5.18;4.15;;;;;;;23.85;100.00;96876.41;5078046;28;20080;-42
2022/08/08 07:19:30;;;;;;;5.70;4.35;;;;;;;23.47;100.00;96890.69;5081599;28;20118;-43
2022/08/08 07:22:04;;;;;;;6.65;4.60;;;;;;;23.66;100.00;96886.22;5076802;28;20182;-43
2022/08/08 07:24:52;;;;;;;5.78;4.72;;;;;;;23.74;100.00;96888.66;5081202;28;20083;-42
2022/08/08 07:27:23;;;;;;;6.20;4.65;;;;;;;23.93;100.00;96882.31;5077452;28;20088;-45
2022/08/08 07:30:13;;;;;;;6.00;4.38;;;;;;;24.94;100.00;96885.75;5077601;28;20076;-45
2022/08/08 07:32:50;;;;;;;5.90;4.78;;;;;;;24.48;100.00;96887.06;5078749;28;20067;-43
2022/08/08 07:35:19;;;;;;;5.55;4.70;;;;;;;24.62;100.00;96887.78;5079888;28;20068;-41
2022/08/08 07:37:49;;;;;;;7.65;4.70;;;;;;;24.79;100.00;96885.31;5082562;28;20080;-41
2022/08/08 07:40:37;;;;;;;6.40;4.78;;;;;;;24.81;100.00;96896.69;5077691;28;20076;-40
2022/08/08 07:43:07;;;;;;;6.07;4.70;;;;;;;25.48;100.00;96894.88;5077147;28;20084;-43
2022/08/08 07:45:37;;;;;;;5.63;4.55;;;;;;;25.50;100.00;96895.47;5077783;28;20753;-41
2022/08/08 07:48:26;;;;;;;5.05;4.18;;;;;;;25.18;100.00;96894.84;5077749;28;20072;-45
2022/08/08 07:50:59;;;;;;;4.55;4.05;;;;;;;25.55;100.00;96900.19;5076619;28;20294;-41
2022/08/08 07:53:33;;;;;;;4.70;4.20;;;;;;;25.46;100.00;96901.53;5076971;28;20086;-41
2022/08/08 07:56:25;;;;;;;4.00;3.60;;;;;;;25.77;100.00;96898.63;5083901;28;20086;-45
2022/08/08 07:59:08;;;;;;;4.85;3.67;;;;;;;25.52;100.00;96892.53;5084081;28;20530;-41
2022/08/08 08:01:41;;;;;;;5.63;4.22;;;;;;;26.19;98.33;96895.94;5088900;28;20190;-42
2022/08/08 08:04:33;;;;;;;6.75;4.07;;;;;;;26.33;94.00;96891.13;5070195;28;20103;-40
2022/08/08 08:07:07;;;;;;;5.47;4.10;;;;;;;25.41;100.00;96904.13;5087228;28;20087;-41
2022/08/08 08:09:39;;;;;;;7.53;4.10;;;;;;;25.90;97.46;96903.03;5088821;28;20482;-41
2022/08/08 08:12:10;;;;;;;5.28;3.83;;;;;;;25.86;100.00;96903.72;5070325;28;20127;-40
2022/08/08 08:15:03;;;;;;;6.30;3.80;;;;;;;26.25;98.40;96892.28;5086573;28;20087;-44
2022/08/08 08:17:32;;;;;;;4.00;3.60;;;;;;;26.48;86.78;96896.09;5087869;28;20072;-42
2022/08/08 08:20:17;;;;;;;4.15;3.50;;;;;;;25.88;81.43;96907.00;5079162;28;20531;-43
2022/08/08 08:22:46;;;;;;;5.80;3.70;;;;;;;25.38;89.51;96901.88;5087781;28;20086;-44
2022/08/08 08:25:16;;;;;;;3.75;3.28;;;;;;;25.03;90.50;96902.47;5077456;28;20087;-42
2022/08/08 08:28:04;;;;;;;5.57;3.75;;;;;;;25.00;88.91;96901.03;5069814;28;20088;-41
2022/08/08 08:30:38;;;;;;;4.07;3.40;;;;;;;25.31;86.43;96899.25;5079774;28;20151;-42
2022/08/08 08:33:06;;;;;;;4.15;3.60;;;;;;;25.20;86.46;96911.66;5087564;28;20086;-44
2022/08/08 08:35:39;;;;;;;4.55;3.40;;;;;;;25.87;82.48;96903.47;5083099;28;20084;-44
2022/08/08 08:38:28;;;;;;;4.90;3.65;;;;;;;25.78;85.45;96910.25;5076519;28;20091;-43
2022/08/08 08:41:00;;;;;;;4.25;3.40;;;;;;;25.78;69.89;96913.78;5076724;28;20550;-43
2022/08/08 08:43:41;;;;;;;5.97;3.30;;;;;;;25.74;88.61;96903.66;5069710;28;20079;-41
2022/08/08 08:46:13;;;;;;;6.05;3.42;;;;;;;25.68;88.31;96907.28;5069618;28;20084;-40
2022/08/08 08:48:44;;;;;;;6.38;3.90;;;;;;;26.08;80.78;96909.41;5082582;28;20083;-40
2022/08/08 08:51:17;;;;;;;6.45;3.90;;;;;;;26.38;79.87;96902.03;5072648;28;20470;-42
2022/08/08 08:53:51;;;;;;;4.60;3.70;;;;;;;25.89;79.99;96911.38;5068975;28;20087;-40
2022/08/08 08:56:28;;;;;;;7.65;4.07;;;;;;;26.56;75.74;96913.84;5069769;28;20087;-41
2022/08/08 08:58:59;;;;;;;5.57;3.45;;;;;;;26.67;79.10;96907.59;5069273;28;20099;-41
2022/08/08 09:01:31;;;;;;;4.93;3.00;;;;;;;26.50;72.69;96910.22;5074525;28;20087;-42
2022/08/08 09:04:03;;;;;;;5.15;3.42;;;;;;;26.49;75.81;96905.84;5074935;28;20080;-47
2022/08/08 09:06:39;;;;;;;3.78;3.00;;;;;;;26.49;68.43;96912.06;5079366;28;20083;-43
2022/08/08 09:09:21;;;;;;;4.57;3.05;;;;;;;26.61;67.70;96917.50;5071410;28;20566;-41
2022/08/08 09:12:09;;;;;;;6.22;3.05;;;;;;;27.26;69.03;96904.88;5075493;28;20094;-41
2022/08/08 09:14:38;;;;;;;5.00;3.55;;;;;;;26.63;69.98;96911.84;5084069;28;20121;-40
2022/08/08 09:17:10;;;;;;;5.65;3.72;;;;;;;26.26;70.75;96912.03;5082275;28;20071;-39
2022/08/08 09:19:46;;;;;;;5.63;2.72;;;;;;;27.12;63.07;96910.53;5074564;28;20083;-41
2022/08/08 09:22:35;;;;;;;3.67;3.25;;;;;;;27.06;61.94;96916.88;5081847;28;20173;-40
2022/08/08 09:25:08;;;;;;;3.17;2.88;;;;;;;26.95;60.81;96909.59;5083083;28;20082;-46
2022/08/08 09:27:39;;;;;;;5.97;3.10;;;;;;;27.35;61.05;96908.81;5081217;28;20079;-45
2022/08/08 09:30:26;;;;;;;5.75;3.22;;;;;;;27.85;57.92;96910.91;5077645;28;20090;-43
2022/08/08 09:32:56;;;;;;;4.47;2.50;;;;;;;27.31;56.17;96913.06;5068656;28;20740;-41
2022/08/08 09:35:46;;;;;;;5.25;2.85;;;;;;;27.13;57.01;96914.06;5079381;28;20520;-40
2022/08/08 09:38:31;;;;;;;4.45;3.20;;;;;;;27.54;54.11;96914.91;5086911;28;20514;-44
2022/08/08 09:41:04;;;;;;;3.42;2.65;;;;;;;28.35;53.96;96907.41;5085443;28;20487;-45
2022/08/08 09:43:42;;;;;;;4.40;3.00;;;;;;;28.12;56.27;96913.81;5080187;28;20083;-41
2022/08/08 09:46:31;;;;;;;5.00;2.83;;;;;;;27.76;55.37;96915.06;5086884;28;20080;-42
2022/08/08 09:49:00;;;;;;;4.32;2.92;;;;;;;27.89;55.79;96909.34;5075333;28;20080;-43
2022/08/08 09:51:52;;;;;;;8.95;3.00;;;;;;;26.87;61.86;96907.25;5073437;28;20080;-42
2022/08/08 09:54:42;;;;;;;5.05;3.10;;;;;;;27.55;58.37;96902.97;5079088;28;20091;-44
2022/08/08 09:57:12;;;;;;;5.10;3.15;;;;;;;27.74;58.61;96896.31;5072528;28;20087;-43
2022/08/08 09:59:49;;;;;;;3.55;3.20;;;;;;;28.05;56.30;96902.31;5080153;28;20076;-43
2022/08/08 10:02:39;;;;;;;3.90;3.00;;;;;;;28.90;52.54;96897.66;5072221;28;20083;-43
2022/08/08 10:05:26;;;;;;;3.35;2.97;;;;;;;28.02;54.91;96900.91;5079347;28;20067;-44
2022/08/08 10:08:00;;;;;;;3.15;2.85;;;;;;;27.72;52.45;96897.63;5091043;28;20087;-45
2022/08/08 10:10:30;;;;;;;4.05;2.80;;;;;;;28.65;52.11;96892.69;5080140;28;20092;-43
2022/08/08 10:13:00;;;;;;;3.28;2.67;;;;;;;28.39;50.15;96895.84;5078271;28;20087;-46
2022/08/08 10:15:45;;;;;;;5.30;3.00;;;;;;;28.39;52.00;96895.84;5080252;28;20114;-42
2022/08/08 10:18:30;;;;;;;3.58;2.30;;;;;;;27.98;49.94;96891.63;5082616;28;20470;-48
2022/08/08 10:21:03;;;;;;;4.40;2.60;;;;;;;28.43;49.56;96900.78;5076567;28;20087;-43
2022/08/08 10:23:52;;;;;;;4.93;2.50;;;;;;;28.98;46.89;96883.66;5082267;28;20086;-43
2022/08/08 10:26:30;;;;;;;3.72;2.75;;;;;;;29.30;44.90;96890.06;5086463;28;20087;-39
2022/08/08 10:29:23;;;;;;;5.03;2.92;;;;;;;28.53;48.16;96888.19;5081238;28;20550;-46
2022/08/08 10:34:59;;;;;;;3.65;2.63;;;;;;;29.67;45.04;96878.53;5078999;28;20155;-42
2022/08/08 10:37:30;;;;;;;3.35;2.65;;;;;;;29.47;44.31;96883.72;5072215;28;20091;-46
2022/08/08 10:40:13;;;;;;;3.20;2.75;;;;;;;28.83;47.36;96885.06;5081665;28;20526;-43
2022/08/08 10:42:45;;;;;;;3.38;2.90;;;;;;;28.33;48.11;96887.84;5085128;28;20075;-40
2022/08/08 10:45:15;;;;;;;4.35;3.00;;;;;;;29.52;45.12;96883.78;5078920;28;20076;-41
2022/08/08 10:47:52;;;;;;;4.75;2.72;;;;;;;29.18;46.99;96881.25;5085307;28;20072;-43
2022/08/08 10:50:31;;;;;;;4.28;3.00;;;;;;;29.57;45.43;96886.56;5076853;28;20080;-44
2022/08/08 10:53:04;;;;;;;4.00;2.80;;;;;;;28.98;46.19;96889.91;5071552;28;20115;-42
2022/08/08 10:55:41;;;;;;;3.63;2.80;;;;;;;28.99;45.59;96885.28;5087817;28;20087;-44
2022/08/08 10:58:14;;;;;;;4.78;2.53;;;;;;;29.06;45.58;96881.34;5079569;28;20517;-43
2022/08/08 11:00:45;;;;;;;4.43;2.60;;;;;;;28.60;47.28;96874.44;5077960;28;20087;-43
2022/08/08 11:03:42;;;;;;;3.28;2.75;;;;;;;28.69;45.29;96874.84;5079110;28;20406;-43
2022/08/08 11:06:30;;;;;;;3.72;2.55;;;;;;;28.97;46.60;96874.66;5087421;28;20087;-43
2022/08/08 11:09:04;;;;;;;4.57;2.75;;;;;;;28.88;45.65;96869.94;5086278;28;20072;-47
2022/08/08 11:11:47;;;;;;;4.68;2.50;;;;;;;28.43;45.14;96877.19;5078153;28;20494;-43
2022/08/08 11:14:35;;;;;;;3.75;2.70;;;;;;;28.76;45.19;96883.63;5075544;28;20068;-40
2022/08/08 11:17:03;;;;;;;3.28;2.70;;;;;;;28.24;45.48;96871.16;5090639;28;20604;-41
2022/08/08 11:19:33;;;;;;;3.60;2.60;;;;;;;29.86;42.26;96873.56;5087664;28;20076;-45
2022/08/08 11:22:02;;;;;;;2.78;2.50;;;;;;;29.90;41.98;96879.28;5087485;28;20087;-46
2022/08/08 11:24:33;;;;;;;3.78;2.53;;;;;;;29.79;41.81;96872.94;5072585;28;20060;-43
2022/08/08 11:27:03;;;;;;;4.25;2.70;;;;;;;29.32;42.87;96868.91;5071264;28;20072;-44
2022/08/08 11:29:47;;;;;;;3.53;2.60;;;;;;;30.06;42.83;96867.47;5071567;28;20068;-47
2022/08/08 11:32:38;;;;;;;3.73;2.67;;;;;;;30.35;41.02;96867.19;5073363;28;20088;-45
2022/08/08 11:35:10;;;;;;;5.22;2.80;;;;;;;31.22;39.95;96868.53;5077869;28;21028;-43
2022/08/08 11:37:58;;;;;;;4.93;2.28;;;;;;;30.91;40.33;96860.22;5073954;28;20317;-42
2022/08/08 11:40:48;;;;;;;4.25;2.38;;;;;;;31.48;38.55;96872.19;5071900;28;20087;-45
2022/08/08 11:43:21;;;;;;;3.17;2.40;;;;;;;31.55;38.79;96861.84;5086235;28;20478;-44
2022/08/08 11:45:52;;;;;;;2.72;2.53;;;;;;;31.50;38.43;96869.19;5083518;28;20083;-46
2022/08/08 11:48:41;;;;;;;4.85;2.30;;;;;;;30.39;39.26;96866.41;5077807;28;20083;-42
2022/08/08 11:51:18;;;;;;;3.00;2.70;;;;;;;30.61;38.25;96866.28;5084066;28;20079;-42
2022/08/08 11:54:06;;;;;;;2.88;2.50;;;;;;;31.03;38.94;96868.16;5079374;28;20091;-43
2022/08/08 11:56:55;;;;;;;5.43;2.60;;;;;;;31.31;37.15;96864.19;5071194;28;20080;-44
2022/08/08 11:59:33;;;;;;;3.67;2.80;;;;;;;30.95;38.92;96860.50;5082373;28;20091;-41
2022/08/08 12:02:22;;;;;;;2.75;2.53;;;;;;;31.19;38.79;96855.44;5079055;28;20080;-46
2022/08/08 12:05:11;;;;;;;3.35;2.45;;;;;;;30.37;40.67;96863.13;5081951;28;20095;-44
2022/08/08 12:07:50;;;;;;;3.38;2.80;;;;;;;30.13;41.81;96864.53;5080725;28;20091;-45
2022/08/08 12:10:21;;;;;;;5.78;2.40;;;;;;;29.74;42.04;96862.03;5071289;28;20084;-44
2022/08/08 12:12:51;;;;;;;3.95;2.50;;;;;;;30.15;42.73;96856.97;5070578;28;20087;-41
2022/08/08 12:15:27;;;;;;;4.45;2.78;;;;;;;29.70;41.88;96860.91;5080936;28;20088;-44
2022/08/08 12:17:56;;;;;;;3.33;3.00;;;;;;;29.28;42.55;96859.59;5081649;28;20521;-44
2022/08/08 12:20:37;;;;;;;3.97;2.95;;;;;;;28.95;43.85;96851.56;5083224;28;20162;-40
2022/08/08 12:23:07;;;;;;;3.58;2.78;;;;;;;30.27;41.23;96854.88;5079177;28;20075;-44
2022/08/08 12:25:55;;;;;;;3.60;2.50;;;;;;;29.44;41.71;96854.34;5076294;28;20073;-49
2022/08/08 12:28:24;;;;;;;4.30;2.90;;;;;;;30.66;40.06;96846.44;5076434;28;20103;-42
2022/08/08 12:30:53;;;;;;;3.67;2.60;;;;;;;31.00;38.97;96835.19;5076499;28;20514;-40
2022/08/08 12:33:25;;;;;;;5.25;2.95;;;;;;;31.37;39.35;96851.44;5077874;28;20079;-45
2022/08/08 12:36:14;;;;;;;4.65;2.67;;;;;;;31.59;36.82;96843.88;5077287;28;20075;-46
2022/08/08 12:38:50;;;;;;;;;;;;;;;30.95;39.07;96847.72;5083855;28;20090;-45
2022/08/08 12:41:25;;;;;;;3.47;2.30;;;;;;;30.80;38.53;96836.75;5069888;28;19966;-46
2022/08/08 12:44:14;;;;;;;5.95;2.65;;;;;;;30.14;38.04;96847.13;5076519;28;20088;-46
2022/08/08 12:47:00;;;;;;;3.10;2.60;;;;;;;31.37;37.27;96841.34;5076128;28;20076;-48